Time;durP1;ratioP1;P1;durP2;ratioP2;P2;SDS_P1;SDS_P2;PMS_P1;PMS_P2;Temp;Humidity;BMP_temperature;BMP_pressure;BME280_temperature;BME280_humidity;BME280_pressure;Samples;Min_cycle;Max_cycle;Signal;HPM_P1;HPM_P2
2021/05/16 00:00:11;;;;;;;9.50;2.40;;;9.70;99.90;;;;;;5060030;28;20444;-84
2021/05/16 00:02:38;;;;;;;11.53;2.67;;;9.80;99.90;;;;;;5061048;28;20471;-84
2021/05/16 00:05:05;;;;;;;12.10;2.70;;;9.80;99.90;;;;;;5062735;28;20661;-85
2021/05/16 00:07:32;;;;;;;12.47;2.30;;;9.80;99.90;;;;;;5061866;28;20530;-84
2021/05/16 00:09:59;;;;;;;11.00;2.33;;;9.90;99.90;;;;;;5058984;28;20452;-84
2021/05/16 00:12:26;;;;;;;10.93;2.87;;;10.00;99.90;;;;;;5054987;28;20543;-83
2021/05/16 00:14:52;;;;;;;12.47;2.70;;;10.10;99.90;;;;;;5058450;28;20897;-83
2021/05/16 00:17:18;;;;;;;9.50;2.70;;;10.10;99.90;;;;;;5053676;28;20541;-84
2021/05/16 00:19:47;;;;;;;12.60;2.70;;;10.20;99.90;;;;;;5057675;28;20838;-85
2021/05/16 00:22:13;;;;;;;10.73;2.77;;;10.30;99.90;;;;;;5057236;28;20492;-84
2021/05/16 00:24:39;;;;;;;9.40;2.20;;;10.30;99.90;;;;;;5057875;28;20447;-84
2021/05/16 00:27:07;;;;;;;14.00;2.93;;;10.40;99.90;;;;;;5052670;28;20445;-83
2021/05/16 00:29:33;;;;;;;16.80;3.10;;;10.40;99.90;;;;;;5058621;28;20499;-83
2021/05/16 00:31:59;;;;;;;12.40;2.60;;;10.40;99.90;;;;;;5048451;28;20468;-85
2021/05/16 00:34:26;;;;;;;11.50;2.83;;;10.40;99.90;;;;;;5056169;28;20460;-84
2021/05/16 00:36:52;;;;;;;13.70;2.83;;;10.40;99.90;;;;;;5058352;28;20483;-84
2021/05/16 00:39:18;;;;;;;13.43;3.53;;;10.40;99.90;;;;;;5059612;28;20451;-83
2021/05/16 00:41:45;;;;;;;10.13;2.80;;;10.40;99.90;;;;;;5057850;28;20451;-84
2021/05/16 00:44:12;;;;;;;9.87;2.63;;;10.50;99.90;;;;;;5060080;28;20444;-84
2021/05/16 00:46:38;;;;;;;16.17;2.43;;;10.40;99.90;;;;;;5058890;28;20585;-83
2021/05/16 00:49:05;;;;;;;8.43;2.67;;;10.40;99.90;;;;;;5059618;28;21303;-83
2021/05/16 00:51:31;;;;;;;9.70;2.30;;;10.50;99.90;;;;;;5060524;28;20462;-84
2021/05/16 00:53:58;;;;;;;14.20;2.80;;;10.50;99.90;;;;;;5059958;28;20567;-84
2021/05/16 00:56:25;;;;;;;14.50;3.00;;;10.50;99.90;;;;;;5059189;28;20476;-84
2021/05/16 00:58:51;;;;;;;9.90;2.50;;;10.40;99.90;;;;;;5058975;28;20955;-85
2021/05/16 01:01:20;;;;;;;14.80;2.90;;;10.40;99.90;;;;;;5056639;28;20901;-84
2021/05/16 01:03:46;;;;;;;14.17;2.90;;;10.40;99.90;;;;;;5059271;28;20529;-84
2021/05/16 01:06:13;;;;;;;13.17;3.17;;;10.50;99.90;;;;;;5059993;28;20467;-84
2021/05/16 01:08:39;;;;;;;8.77;2.80;;;10.40;99.90;;;;;;5060421;28;20499;-84
2021/05/16 01:11:06;;;;;;;11.63;2.70;;;10.50;99.90;;;;;;5060823;28;20447;-85
2021/05/16 01:13:35;;;;;;;16.17;3.00;;;10.40;99.90;;;;;;5060081;28;20540;-85
2021/05/16 01:16:01;;;;;;;16.67;3.80;;;10.40;99.90;;;;;;5061430;28;20480;-84
2021/05/16 01:18:28;;;;;;;11.17;2.70;;;10.40;99.90;;;;;;5060992;28;20463;-85
2021/05/16 01:20:55;;;;;;;15.27;3.33;;;10.50;99.90;;;;;;5058971;28;20451;-84
2021/05/16 01:23:28;;;;;;;11.13;2.70;;;10.40;99.90;;;;;;5061658;28;20483;-84
2021/05/16 01:25:54;;;;;;;12.77;3.57;;;10.50;99.90;;;;;;5060258;28;21041;-84
2021/05/16 01:28:21;;;;;;;14.53;2.93;;;10.50;99.90;;;;;;5059250;28;20451;-84
2021/05/16 01:30:49;;;;;;;15.20;2.70;;;10.60;99.90;;;;;;5058792;28;20550;-85
2021/05/16 01:33:16;;;;;;;12.80;3.17;;;10.50;99.90;;;;;;5058280;28;20471;-84
2021/05/16 01:35:43;;;;;;;15.30;3.77;;;10.60;99.90;;;;;;5058003;28;20603;-83
2021/05/16 01:38:11;;;;;;;12.63;3.80;;;10.60;99.90;;;;;;5059010;28;20459;-85
2021/05/16 01:40:40;;;;;;;15.90;3.13;;;10.60;99.90;;;;;;5059672;28;20492;-83
2021/05/16 01:43:08;;;;;;;13.50;3.33;;;10.70;99.90;;;;;;5059057;28;20472;-83
2021/05/16 01:45:35;;;;;;;16.17;3.47;;;10.70;99.90;;;;;;5058987;28;20449;-84
2021/05/16 01:48:01;;;;;;;19.23;3.80;;;10.70;99.90;;;;;;5058349;28;20455;-83
2021/05/16 01:50:30;;;;;;;19.33;2.83;;;10.70;99.90;;;;;;5058254;28;21062;-82
2021/05/16 01:52:57;;;;;;;12.90;2.93;;;10.70;99.90;;;;;;5058932;28;20563;-84
2021/05/16 01:55:23;;;;;;;17.17;2.83;;;10.70;99.90;;;;;;5059396;28;20456;-83
2021/05/16 01:57:51;;;;;;;17.00;3.63;;;10.70;99.90;;;;;;5058522;28;20444;-83
2021/05/16 02:00:25;;;;;;;18.30;3.60;;;10.70;99.90;;;;;;5058399;28;20475;-83
2021/05/16 02:02:52;;;;;;;21.77;3.20;;;10.70;99.90;;;;;;5059783;28;20520;-85
2021/05/16 02:05:19;;;;;;;17.90;2.70;;;10.70;99.90;;;;;;5059422;28;20478;-85
2021/05/16 02:07:46;;;;;;;13.73;3.00;;;10.70;99.90;;;;;;5061758;28;20455;-85
2021/05/16 02:10:12;;;;;;;17.27;2.63;;;10.70;99.90;;;;;;5058001;28;20443;-85
2021/05/16 02:12:39;;;;;;;13.23;2.97;;;10.70;99.90;;;;;;5058588;28;20531;-85
2021/05/16 02:15:08;;;;;;;18.20;2.87;;;10.60;99.90;;;;;;5058482;28;20456;-84
2021/05/16 02:17:34;;;;;;;12.57;2.30;;;10.60;99.90;;;;;;5058505;28;20456;-84
2021/05/16 02:20:01;;;;;;;12.43;2.80;;;10.60;99.90;;;;;;5057996;28;20827;-84
2021/05/16 02:22:27;;;;;;;17.17;4.43;;;10.50;99.90;;;;;;5057623;28;20480;-85
2021/05/16 02:24:53;;;;;;;18.07;3.57;;;10.40;99.90;;;;;;5057757;28;20451;-84
2021/05/16 02:27:20;;;;;;;16.90;2.70;;;10.40;99.90;;;;;;5058200;28;20510;-85
2021/05/16 02:29:46;;;;;;;11.60;2.60;;;10.40;99.90;;;;;;5057518;28;20456;-85
2021/05/16 02:32:13;;;;;;;15.97;3.13;;;10.40;99.90;;;;;;5056303;28;20468;-85
2021/05/16 02:34:40;;;;;;;12.00;2.50;;;10.50;99.90;;;;;;5056800;28;20452;-85
2021/05/16 02:37:06;;;;;;;11.03;2.70;;;10.50;99.90;;;;;;5057196;28;20480;-85
2021/05/16 02:39:32;;;;;;;15.87;2.67;;;10.50;99.90;;;;;;5057495;28;20545;-86
2021/05/16 02:41:59;;;;;;;9.70;2.10;;;10.50;99.90;;;;;;5057175;28;20555;-85
2021/05/16 02:44:27;;;;;;;18.40;5.13;;;10.50;99.90;;;;;;5057477;28;20539;-86
2021/05/16 02:46:54;;;;;;;21.33;3.20;;;10.50;99.90;;;;;;5057409;28;20472;-83
2021/05/16 02:49:21;;;;;;;14.27;3.70;;;10.50;99.90;;;;;;5057589;28;21063;-84
2021/05/16 02:51:47;;;;;;;11.50;1.90;;;10.50;99.90;;;;;;5058247;28;20466;-84
2021/05/16 02:54:13;;;;;;;12.73;2.97;;;10.60;99.90;;;;;;5060847;28;20547;-83
2021/05/16 02:56:40;;;;;;;19.30;3.10;;;10.50;99.90;;;;;;5058371;28;20486;-83
2021/05/16 02:59:06;;;;;;;9.90;2.00;;;10.60;99.90;;;;;;5060010;28;20452;-83
2021/05/16 03:01:32;;;;;;;16.40;3.50;;;10.50;99.90;;;;;;5070227;28;20455;-84
2021/05/16 03:03:59;;;;;;;14.20;2.53;;;10.60;99.90;;;;;;5071909;28;20463;-85
2021/05/16 03:06:26;;;;;;;10.73;2.60;;;10.60;99.90;;;;;;5067442;28;20560;-84
2021/05/16 03:08:52;;;;;;;14.70;2.77;;;10.50;99.90;;;;;;5059556;28;20452;-84
2021/05/16 03:11:19;;;;;;;16.10;2.40;;;10.60;99.90;;;;;;5058286;28;20447;-84
2021/05/16 03:13:45;;;;;;;11.97;2.30;;;10.60;99.90;;;;;;5060026;28;20516;-84
2021/05/16 03:16:11;;;;;;;13.10;2.70;;;10.60;99.90;;;;;;5059509;28;20866;-84
2021/05/16 03:18:38;;;;;;;19.00;3.13;;;10.60;99.90;;;;;;5060611;28;20458;-84
2021/05/16 03:21:05;;;;;;;12.40;2.67;;;10.60;99.90;;;;;;5069947;28;20507;-84
2021/05/16 03:23:32;;;;;;;15.27;2.57;;;10.60;99.90;;;;;;5062115;23;20500;-81
2021/05/16 03:26:01;;;;;;;15.20;2.93;;;10.60;99.90;;;;;;5034558;28;20453;-81
2021/05/16 03:28:28;;;;;;;20.67;3.67;;;10.60;99.90;;;;;;5036082;28;20801;-82
2021/05/16 03:30:54;;;;;;;13.90;3.93;;;10.60;99.90;;;;;;5028109;28;20548;-81
2021/05/16 03:33:20;;;;;;;15.03;4.40;;;10.60;99.90;;;;;;5035169;28;20460;-81
2021/05/16 03:35:47;;;;;;;16.13;2.97;;;10.60;99.90;;;;;;5036603;28;20569;-82
2021/05/16 03:38:14;;;;;;;17.67;3.00;;;10.60;99.90;;;;;;5035934;28;20457;-82
2021/05/16 03:40:41;;;;;;;16.17;4.60;;;10.70;99.90;;;;;;5035046;28;20463;-82
2021/05/16 03:43:08;;;;;;;10.63;2.40;;;10.60;99.90;;;;;;5034393;28;20465;-82
2021/05/16 03:45:34;;;;;;;11.80;2.30;;;10.60;99.90;;;;;;5035523;28;20457;-82
2021/05/16 03:48:01;;;;;;;16.30;3.70;;;10.60;99.90;;;;;;5034671;28;20460;-81
2021/05/16 03:50:28;;;;;;;12.07;2.70;;;10.50;99.90;;;;;;5037460;28;20445;-82
2021/05/16 03:52:54;;;;;;;11.70;2.40;;;10.50;99.90;;;;;;5037924;28;20467;-82
2021/05/16 03:55:21;;;;;;;14.33;3.60;;;10.40;99.90;;;;;;5034416;28;20484;-81
2021/05/16 03:57:49;;;;;;;11.33;3.03;;;10.40;99.90;;;;;;5038728;28;20461;-82
2021/05/16 04:00:18;;;;;;;9.97;2.23;;;10.50;99.90;;;;;;5035576;28;20452;-81
2021/05/16 04:02:45;;;;;;;14.67;3.83;;;10.40;99.90;;;;;;5038293;28;20499;-82
2021/05/16 04:05:12;;;;;;;16.07;2.57;;;10.40;99.90;;;;;;5039636;28;20460;-82
2021/05/16 04:07:39;;;;;;;10.60;2.23;;;10.40;99.90;;;;;;5038215;28;20449;-82
2021/05/16 04:10:06;;;;;;;12.47;3.40;;;10.40;99.90;;;;;;5039059;28;20824;-81
2021/05/16 04:12:33;;;;;;;11.93;2.57;;;10.30;99.90;;;;;;5038346;28;21095;-81
2021/05/16 04:15:00;;;;;;;9.57;2.57;;;10.30;99.90;;;;;;5038957;28;20445;-81
2021/05/16 04:17:27;;;;;;;9.57;2.43;;;10.20;99.90;;;;;;5038800;28;20476;-81
2021/05/16 04:19:53;;;;;;;11.93;2.63;;;10.20;99.90;;;;;;5038938;28;20456;-81
2021/05/16 04:22:19;;;;;;;13.50;2.07;;;10.20;99.90;;;;;;5038040;28;20482;-81
2021/05/16 04:24:45;;;;;;;19.30;3.33;;;10.20;99.90;;;;;;5038481;28;20453;-80
2021/05/16 04:27:12;;;;;;;11.87;2.50;;;10.20;99.90;;;;;;5038666;28;20871;-81
2021/05/16 04:29:38;;;;;;;14.87;3.60;;;10.10;99.90;;;;;;5038605;28;20465;-82
2021/05/16 04:32:06;;;;;;;14.30;3.13;;;10.10;99.90;;;;;;5038720;28;20512;-82
2021/05/16 04:34:32;;;;;;;12.00;2.93;;;10.10;99.90;;;;;;5039522;28;20487;-82
2021/05/16 04:36:58;;;;;;;13.30;2.40;;;10.20;99.90;;;;;;5039825;28;20567;-84
2021/05/16 04:39:25;;;;;;;13.37;2.30;;;10.20;99.90;;;;;;5041410;28;20480;-84
2021/05/16 04:41:51;;;;;;;14.13;3.10;;;10.30;99.90;;;;;;5041021;28;20526;-84
2021/05/16 04:44:17;;;;;;;10.20;2.67;;;10.30;99.90;;;;;;5041290;28;20566;-84
2021/05/16 04:46:43;;;;;;;9.70;2.37;;;10.30;99.90;;;;;;5041745;28;20445;-84
2021/05/16 04:49:11;;;;;;;14.00;3.67;;;10.30;99.90;;;;;;5040159;28;20831;-83
2021/05/16 04:51:38;;;;;;;10.67;2.60;;;10.30;99.90;;;;;;5042240;28;20453;-83
2021/05/16 04:54:05;;;;;;;14.37;3.30;;;10.40;99.90;;;;;;5048708;28;20477;-82
2021/05/16 04:56:31;;;;;;;12.23;2.93;;;10.40;99.90;;;;;;5049203;28;20536;-82
2021/05/16 04:58:58;;;;;;;11.63;2.87;;;10.60;99.90;;;;;;5043319;28;20967;-82
2021/05/16 05:01:24;;;;;;;14.20;2.80;;;10.60;99.90;;;;;;5043855;28;20544;-82
2021/05/16 05:03:51;;;;;;;15.50;2.80;;;10.80;99.90;;;;;;5046117;28;20483;-83
2021/05/16 05:06:18;;;;;;;11.83;2.87;;;10.80;99.90;;;;;;5046917;28;20499;-82
2021/05/16 05:08:44;;;;;;;11.07;2.47;;;11.00;99.90;;;;;;5046601;28;20483;-83
2021/05/16 05:11:11;;;;;;;13.33;2.80;;;11.20;99.90;;;;;;5044887;28;20514;-80
2021/05/16 05:13:37;;;;;;;16.20;2.70;;;11.20;99.90;;;;;;5046416;28;20536;-83
2021/05/16 05:16:04;;;;;;;10.93;2.70;;;11.40;99.90;;;;;;5046105;28;20485;-82
2021/05/16 05:18:32;;;;;;;16.50;2.90;;;11.50;99.90;;;;;;5046971;28;20544;-82
2021/05/16 05:20:58;;;;;;;13.87;2.83;;;11.70;99.90;;;;;;5047177;28;20814;-82
2021/05/16 05:23:27;;;;;;;13.03;3.13;;;11.80;99.90;;;;;;5046197;28;20468;-82
2021/05/16 05:25:54;;;;;;;9.57;1.93;;;11.70;99.90;;;;;;5046528;28;20445;-82
2021/05/16 05:28:21;;;;;;;12.90;2.90;;;11.80;99.90;;;;;;5046209;28;20449;-81
2021/05/16 05:30:47;;;;;;;13.07;4.03;;;12.00;99.90;;;;;;5044061;28;20488;-81
2021/05/16 05:33:14;;;;;;;11.93;2.77;;;12.10;99.90;;;;;;5045624;28;20461;-82
2021/05/16 05:35:40;;;;;;;13.17;2.67;;;12.20;99.90;;;;;;5045929;28;20491;-81
2021/05/16 05:38:06;;;;;;;24.07;6.20;;;12.20;99.90;;;;;;5046746;28;21016;-81
2021/05/16 05:40:33;;;;;;;16.33;2.90;;;12.20;99.90;;;;;;5046286;28;20449;-81
2021/05/16 05:43:00;;;;;;;16.53;3.00;;;12.30;99.90;;;;;;5046704;28;20473;-81
2021/05/16 05:45:26;;;;;;;12.07;2.47;;;12.40;99.90;;;;;;5047121;28;20463;-80
2021/05/16 05:47:53;;;;;;;16.07;2.87;;;12.40;99.90;;;;;;5046933;28;20512;-80
2021/05/16 05:50:19;;;;;;;14.53;3.20;;;12.40;99.90;;;;;;5045502;28;20517;-81
2021/05/16 05:52:45;;;;;;;15.73;2.67;;;12.40;99.90;;;;;;5044169;28;20465;-81
2021/05/16 05:55:13;;;;;;;14.27;3.10;;;12.50;99.90;;;;;;5044385;28;20532;-81
2021/05/16 05:57:40;;;;;;;13.10;2.90;;;12.40;99.90;;;;;;5042569;28;20583;-81
2021/05/16 06:00:07;;;;;;;11.33;3.10;;;12.30;99.90;;;;;;5039827;28;20447;-81
2021/05/16 06:02:34;;;;;;;10.70;2.73;;;12.50;99.90;;;;;;5038191;28;20468;-83
2021/05/16 06:05:00;;;;;;;11.87;3.00;;;12.80;99.90;;;;;;5042041;28;20481;-82
2021/05/16 06:07:27;;;;;;;18.23;3.40;;;12.70;99.90;;;;;;5042532;28;20437;-83
2021/05/16 06:09:53;;;;;;;16.37;3.20;;;12.60;99.90;;;;;;5043324;28;20500;-82
2021/05/16 06:12:19;;;;;;;15.23;3.63;;;12.60;99.90;;;;;;5042258;28;20525;-82
2021/05/16 06:14:49;;;;;;;13.50;3.00;;;12.60;99.90;;;;;;5044160;28;20543;-82
2021/05/16 06:17:15;;;;;;;16.33;2.87;;;12.60;99.90;;;;;;5041598;28;20476;-82
2021/05/16 06:19:41;;;;;;;13.80;3.10;;;12.90;99.90;;;;;;5044539;28;20449;-82
2021/05/16 06:22:13;;;;;;;13.87;3.60;;;13.20;99.90;;;;;;5039614;28;20453;-81
2021/05/16 06:24:39;;;;;;;16.17;3.93;;;13.10;99.90;;;;;;5042021;28;20464;-82
2021/05/16 06:27:06;;;;;;;20.40;5.43;;;12.90;99.90;;;;;;5041880;28;20453;-82
2021/05/16 06:29:32;;;;;;;15.20;3.13;;;12.90;99.90;;;;;;5043145;28;20520;-81
2021/05/16 06:31:59;;;;;;;10.80;2.67;;;13.00;99.90;;;;;;5043077;28;20473;-82
2021/05/16 06:34:27;;;;;;;16.33;3.03;;;13.20;99.90;;;;;;5044072;28;20532;-81
2021/05/16 06:36:55;;;;;;;13.83;3.10;;;13.30;99.90;;;;;;5044782;28;20484;-82
2021/05/16 06:39:23;;;;;;;14.13;3.53;;;13.20;99.90;;;;;;5043987;28;20532;-82
2021/05/16 06:41:52;;;;;;;18.00;3.93;;;13.40;99.90;;;;;;5044142;28;20444;-80
2021/05/16 06:44:21;;;;;;;16.70;3.30;;;13.60;99.90;;;;;;5042816;28;20472;-82
2021/05/16 06:46:48;;;;;;;15.70;3.30;;;14.00;99.90;;;;;;5042645;28;20532;-82
2021/05/16 06:49:15;;;;;;;17.57;4.00;;;14.10;99.90;;;;;;5042814;28;20473;-82
2021/05/16 06:51:42;;;;;;;17.50;3.90;;;13.80;99.90;;;;;;5037040;28;20443;-82
2021/05/16 06:54:08;;;;;;;19.50;3.13;;;13.60;99.90;;;;;;5033574;28;20500;-82
2021/05/16 06:56:35;;;;;;;16.63;3.27;;;13.50;99.90;;;;;;5035708;28;20519;-82
2021/05/16 06:59:02;;;;;;;13.27;2.93;;;13.70;99.90;;;;;;5041597;28;20496;-83
2021/05/16 07:01:28;;;;;;;14.80;3.43;;;13.80;99.90;;;;;;5033082;28;20444;-82
2021/05/16 07:03:54;;;;;;;15.93;3.57;;;14.00;99.90;;;;;;5035414;28;20479;-81
2021/05/16 07:06:22;;;;;;;18.33;3.70;;;14.20;99.90;;;;;;5039391;28;20957;-81
2021/05/16 07:08:48;;;;;;;13.57;4.63;;;14.10;99.90;;;;;;5038640;28;20533;-83
2021/05/16 07:11:15;;;;;;;11.90;2.77;;;14.00;99.90;;;;;;5034987;28;20491;-81
2021/05/16 07:13:41;;;;;;;15.00;2.87;;;12.10;99.90;;;;;;5037329;28;20602;-82
2021/05/16 07:16:07;;;;;;;16.00;2.90;;;14.10;99.90;;;;;;5032516;28;20553;-82
2021/05/16 07:18:34;;;;;;;16.73;3.37;;;13.80;99.90;;;;;;5034889;28;20537;-83
2021/05/16 07:21:00;;;;;;;13.33;2.50;;;13.80;99.90;;;;;;5043444;28;20511;-82
2021/05/16 07:23:28;;;;;;;14.53;2.90;;;14.00;99.90;;;;;;5042637;28;20484;-82
2021/05/16 07:25:54;;;;;;;12.97;3.00;;;14.00;99.90;;;;;;5044130;28;20540;-82
2021/05/16 07:28:20;;;;;;;12.80;3.10;;;14.00;99.90;;;;;;5048574;28;20564;-82
2021/05/16 07:30:47;;;;;;;17.30;3.10;;;14.00;99.90;;;;;;5048138;28;20460;-82
2021/05/16 07:33:13;;;;;;;15.93;2.77;;;13.90;99.90;;;;;;5046447;28;20493;-83
2021/05/16 07:35:39;;;;;;;9.83;2.40;;;13.90;99.90;;;;;;5047489;28;20546;-83
2021/05/16 07:38:06;;;;;;;16.27;3.03;;;14.20;99.90;;;;;;5048413;28;20445;-83
2021/05/16 07:40:33;;;;;;;11.37;2.70;;;14.50;99.90;;;;;;5047606;28;20539;-82
2021/05/16 07:42:59;;;;;;;13.47;2.87;;;14.10;99.90;;;;;;5040467;28;20484;-82
2021/05/16 07:45:26;;;;;;;12.27;2.57;;;14.20;99.90;;;;;;5046590;28;20535;-81
2021/05/16 07:47:52;;;;;;;10.30;2.70;;;14.30;99.90;;;;;;5048494;28;20861;-83
2021/05/16 07:50:19;;;;;;;14.90;3.07;;;14.70;99.90;;;;;;5048932;28;20512;-82
2021/05/16 07:52:45;;;;;;;14.43;2.77;;;15.10;99.90;;;;;;5047885;28;20563;-82
2021/05/16 07:55:12;;;;;;;13.00;2.47;;;15.10;99.90;;;;;;5039659;28;20437;-82
2021/05/16 07:57:40;;;;;;;9.93;2.43;;;15.00;99.90;;;;;;5036340;28;21022;-83
2021/05/16 08:00:10;;;;;;;15.63;2.77;;;15.00;99.90;;;;;;5042677;28;20453;-83
2021/05/16 08:02:37;;;;;;;16.70;3.70;;;15.30;99.90;;;;;;5044723;28;20472;-83
2021/05/16 08:05:04;;;;;;;14.97;4.93;;;14.80;99.90;;;;;;5039286;28;20461;-83
2021/05/16 08:07:30;;;;;;;19.57;3.20;;;14.60;99.90;;;;;;5041986;28;20449;-84
2021/05/16 08:09:57;;;;;;;11.87;2.83;;;14.50;99.90;;;;;;5044765;28;20520;-84
2021/05/16 08:12:23;;;;;;;13.60;2.77;;;14.80;99.90;;;;;;5041548;28;20513;-84
2021/05/16 08:14:53;;;;;;;12.93;2.80;;;14.90;99.90;;;;;;5042721;28;20549;-84
2021/05/16 08:17:21;;;;;;;11.87;2.90;;;14.70;99.90;;;;;;5046326;28;20556;-84
2021/05/16 08:19:47;;;;;;;11.70;2.67;;;14.50;99.90;;;;;;5041820;28;20442;-84
2021/05/16 08:22:14;;;;;;;16.60;3.67;;;14.30;99.90;;;;;;5043215;28;20524;-85
2021/05/16 08:24:40;;;;;;;18.87;5.57;;;13.90;99.90;;;;;;5043793;28;20901;-86
2021/05/16 08:27:07;;;;;;;16.00;3.10;;;13.60;99.90;;;;;;5037210;28;20536;-86
2021/05/16 08:29:36;;;;;;;12.63;3.13;;;13.10;99.90;;;;;;5040024;28;20465;-85
2021/05/16 08:32:06;;;;;;;12.93;3.67;;;12.90;99.90;;;;;;5043320;28;20453;-86
2021/05/16 08:34:33;;;;;;;12.07;2.83;;;12.80;99.90;;;;;;5045065;28;20464;-85
2021/05/16 08:36:59;;;;;;;16.53;3.50;;;13.50;99.90;;;;;;5045383;28;20552;-85
2021/05/16 08:39:25;;;;;;;17.40;2.90;;;14.50;99.90;;;;;;5043182;28;20501;-85
2021/05/16 08:41:52;;;;;;;16.57;3.40;;;15.30;99.90;;;;;;5041900;28;20456;-85
2021/05/16 08:44:20;;;;;;;11.40;2.60;;;15.80;99.90;;;;;;5045274;28;20532;-86
2021/05/16 08:46:47;;;;;;;13.40;2.60;;;15.70;99.90;;;;;;5043508;28;20449;-85
2021/05/16 08:49:14;;;;;;;14.47;3.07;;;16.30;99.90;;;;;;5044413;28;20544;-86
2021/05/16 08:51:44;;;;;;;17.10;3.20;;;15.20;99.90;;;;;;5043951;28;21031;-85
2021/05/16 08:54:11;;;;;;;14.90;2.60;;;14.90;99.90;;;;;;5048104;28;20464;-85
2021/05/16 08:56:37;;;;;;;16.10;3.30;;;14.90;99.90;;;;;;5047227;28;20536;-85
2021/05/16 08:59:03;;;;;;;14.20;2.97;;;14.80;99.90;;;;;;5045812;28;20448;-86
2021/05/16 09:01:35;;;;;;;12.77;3.27;;;14.70;99.90;;;;;;5048740;28;20529;-84
2021/05/16 09:04:21;;;;;;;15.13;2.37;;;14.50;99.90;;;;;;5049602;28;21076;-86
2021/05/16 09:06:52;;;;;;;12.53;1.93;;;16.40;99.90;;;;;;5041282;28;20441;-85
2021/05/16 09:09:30;;;;;;;14.60;2.40;;;17.60;99.90;;;;;;5038322;28;20532;-85
2021/05/16 09:11:59;;;;;;;15.73;3.70;;;17.50;99.90;;;;;;5036706;28;20540;-85
2021/05/16 09:14:45;;;;;;;14.37;5.30;;;17.30;99.90;;;;;;5040829;28;20534;-85
2021/05/16 09:17:26;;;;;;;14.93;2.63;;;16.70;99.90;;;;;;5032207;28;20495;-86
2021/05/16 09:19:56;;;;;;;14.00;3.80;;;16.20;99.90;;;;;;5034698;28;20452;-86
2021/05/16 09:22:36;;;;;;;19.50;3.03;;;15.70;99.90;;;;;;5042460;28;20449;-85
2021/05/16 09:25:11;;;;;;;14.23;3.30;;;15.00;99.90;;;;;;5056174;23;20546;-83
2021/05/16 09:27:38;;;;;;;14.00;2.70;;;14.30;99.90;;;;;;5046689;28;20571;-85
2021/05/16 09:30:24;;;;;;;9.47;3.03;;;14.30;99.90;;;;;;5044808;28;20464;-85
2021/05/16 09:32:53;;;;;;;14.40;3.70;;;14.30;99.90;;;;;;5043846;28;20533;-86
2021/05/16 09:35:29;;;;;;;15.20;3.27;;;14.20;99.90;;;;;;5044022;28;20504;-84
2021/05/16 09:38:12;;;;;;;14.30;4.27;;;14.20;99.90;;;;;;5045361;28;20527;-85
2021/05/16 09:40:41;;;;;;;12.83;3.20;;;14.30;99.90;;;;;;5042714;28;20472;-85
2021/05/16 09:43:24;;;;;;;12.07;3.03;;;14.40;99.90;;;;;;5049723;28;20456;-86
2021/05/16 09:46:02;;;;;;;9.20;2.77;;;15.10;99.90;;;;;;5055550;28;20449;-85
2021/05/16 09:48:31;;;;;;;18.60;5.67;;;15.70;99.90;;;;;;5055928;28;20453;-88
2021/05/16 09:51:22;;;;;;;19.73;10.50;;;17.90;99.90;;;;;;5057260;28;20441;-84
2021/05/16 09:54:02;;;;;;;360.47;329.27;;;20.50;99.90;;;;;;5051406;28;20491;-85
2021/05/16 09:56:32;;;;;;;39.17;20.83;;;23.10;99.90;;;;;;5049981;28;20536;-86
2021/05/16 09:59:05;;;;;;;10.17;2.43;;;25.10;99.90;;;;;;5045182;28;20445;-84
2021/05/16 10:01:32;;;;;;;9.10;1.90;;;26.50;99.90;;;;;;5045190;28;20484;-86
2021/05/16 10:04:00;;;;;;;10.17;2.67;;;26.90;99.90;;;;;;5044933;28;20461;-87
2021/05/16 10:06:28;;;;;;;9.73;2.23;;;28.20;99.90;;;;;;5033088;28;20445;-86
2021/05/16 10:08:55;;;;;;;8.97;2.10;;;27.90;99.90;;;;;;5038461;28;20535;-85
2021/05/16 10:11:24;;;;;;;8.97;2.10;;;27.50;99.00;;;;;;5039968;28;20463;-83
2021/05/16 10:14:01;;;;;;;9.87;2.13;;;26.20;99.90;;;;;;5042694;28;20476;-87
2021/05/16 10:16:32;;;;;;;8.30;1.60;;;26.20;98.70;;;;;;5041297;28;20573;-84
2021/05/16 10:18:59;;;;;;;8.73;1.80;;;26.00;99.90;;;;;;5043535;28;20448;-86
2021/05/16 10:21:27;;;;;;;10.10;2.17;;;23.90;99.90;;;;;;5042554;28;21059;-82
2021/05/16 10:24:13;;;;;;;8.43;2.10;;;22.30;99.90;;;;;;5042618;28;20587;-86
2021/05/16 10:26:41;;;;;;;11.43;2.30;;;20.80;99.90;;;;;;5044087;28;20452;-86
2021/05/16 10:29:09;;;;;;;7.50;1.97;;;20.60;99.90;;;;;;5040694;28;20950;-85
2021/05/16 10:31:45;;;;;;;561.80;513.33;;;20.30;99.90;;;;;;5043824;28;20523;-86
2021/05/16 10:34:51;;;;;;;9.13;2.20;;;19.60;99.90;;;;;;5041019;28;20524;-85
2021/05/16 10:37:39;;;;;;;7.20;1.80;;;18.80;99.90;;;;;;5040197;28;20507;-86
2021/05/16 10:40:27;;;;;;;6.83;1.40;;;20.90;99.90;;;;;;5042257;28;20520;-86
2021/05/16 10:42:55;;;;;;;9.57;1.90;;;23.90;99.90;;;;;;5047243;28;20491;-85
2021/05/16 10:45:25;;;;;;;8.80;2.03;;;25.70;99.90;;;;;;5052053;28;20469;-86
2021/05/16 10:48:05;;;;;;;8.70;1.50;;;26.00;99.90;;;;;;5051043;28;20451;-86
2021/05/16 10:50:37;;;;;;;7.90;1.97;;;26.40;96.80;;;;;;5044849;28;20542;-85
2021/05/16 10:53:06;;;;;;;7.00;1.53;;;27.80;96.70;;;;;;5039541;28;20472;-85
2021/05/16 10:55:34;;;;;;;9.57;1.70;;;28.60;91.20;;;;;;5028507;28;20531;-87
2021/05/16 10:58:02;;;;;;;6.07;1.20;;;30.80;80.00;;;;;;5041839;28;20476;-84
2021/05/16 11:00:30;;;;;;;7.30;1.60;;;32.40;84.00;;;;;;5043473;28;20459;-87
2021/05/16 11:03:01;;;;;;;8.40;1.60;;;32.30;68.00;;;;;;5044571;28;20452;-86
2021/05/16 11:05:55;;;;;;;6.47;1.20;;;32.50;61.30;;;;;;5044639;28;20477;-85
2021/05/16 11:09:03;;;;;;;9.07;1.80;;;29.90;58.70;;;;;;5040492;28;20458;-88
2021/05/16 11:11:34;;;;;;;6.93;1.50;;;27.20;60.00;;;;;;4980625;28;20510;-84
2021/05/16 11:14:00;;;;;;;6.17;1.07;;;24.10;69.60;;;;;;4979483;28;20566;-86
2021/05/16 11:16:27;;;;;;;209.43;192.20;;;20.80;79.20;;;;;;5011348;28;20484;-86
2021/05/16 11:18:53;;;;;;;401.37;370.50;;;18.60;99.90;;;;;;5044009;28;20444;-85
2021/05/16 11:21:20;;;;;;;393.80;365.27;;;17.70;99.90;;;;;;5048334;28;20449;-86
2021/05/16 11:23:49;;;;;;;235.07;219.10;;;17.10;99.90;;;;;;5043866;28;20512;-84
2021/05/16 11:26:21;;;;;;;24.53;22.53;;;17.40;99.90;;;;;;5046239;28;20547;-85
2021/05/16 11:28:56;;;;;;;12.33;1.13;;;20.10;99.90;;;;;;5046241;28;20445;-86
2021/05/16 11:31:25;;;;;;;13.47;1.00;;;22.60;99.90;;;;;;5037069;28;20449;-85
2021/05/16 11:33:53;;;;;;;7.90;1.30;;;25.10;99.90;;;;;;5040023;28;20471;-85
2021/05/16 11:36:21;;;;;;;12.30;1.30;;;27.20;99.90;;;;;;5038254;28;20472;-87
2021/05/16 11:38:53;;;;;;;7.50;1.20;;;28.70;98.20;;;;;;5030013;28;20449;-85
2021/05/16 11:41:28;;;;;;;7.33;1.30;;;28.60;89.60;;;;;;5036947;28;20543;-86
2021/05/16 11:43:55;;;;;;;7.77;1.50;;;30.30;89.20;;;;;;5043645;28;20521;-85
2021/05/16 11:46:29;;;;;;;7.33;1.30;;;31.50;78.90;;;;;;5051788;28;20528;-86
2021/05/16 11:48:56;;;;;;;7.00;1.40;;;32.10;73.50;;;;;;5041522;28;20458;-86
2021/05/16 11:51:23;;;;;;;7.67;1.33;;;31.40;65.20;;;;;;5038565;28;20459;-86
2021/05/16 11:53:55;;;;;;;7.03;1.30;;;32.30;63.20;;;;;;5037012;28;20591;-85
2021/05/16 11:56:24;;;;;;;7.23;1.20;;;32.30;64.50;;;;;;5039397;28;21031;-84
2021/05/16 11:58:56;;;;;;;6.13;1.10;;;31.50;66.50;;;;;;5035131;28;20449;-86
2021/05/16 12:01:27;;;;;;;5.73;1.30;;;32.70;60.90;;;;;;5037662;28;20460;-86
2021/05/16 12:03:58;;;;;;;7.57;1.23;;;32.80;58.20;;;;;;5041461;28;21074;-86
2021/05/16 12:06:28;;;;;;;10.33;1.50;;;34.10;56.90;;;;;;5033773;28;22408;-85
2021/05/16 12:08:59;;;;;;;5.67;1.23;;;34.20;54.50;;;;;;5036596;28;20449;-85
2021/05/16 12:11:26;;;;;;;7.33;1.23;;;33.10;53.60;;;;;;5034555;28;20461;-85
2021/05/16 12:14:02;;;;;;;6.03;1.10;;;35.10;56.10;;;;;;5035068;28;20871;-85
2021/05/16 12:16:29;;;;;;;6.60;1.63;;;36.20;51.00;;;;;;5034569;28;20587;-86
2021/05/16 12:18:56;;;;;;;5.23;1.10;;;35.70;49.30;;;;;;5032646;28;20467;-87
2021/05/16 12:21:25;;;;;;;5.97;1.43;;;35.70;51.10;;;;;;5034169;28;20547;-88
2021/05/16 12:24:02;;;;;;;7.10;1.53;;;35.10;50.40;;;;;;5034467;28;20476;-85
2021/05/16 12:26:32;;;;;;;6.10;1.50;;;36.40;48.90;;;;;;5031458;28;20436;-86
2021/05/16 12:28:59;;;;;;;8.80;3.70;;;33.50;47.70;;;;;;5037604;28;20531;-85
2021/05/16 12:31:26;;;;;;;19.87;11.47;;;32.00;48.70;;;;;;5039641;28;20812;-83
2021/05/16 12:34:08;;;;;;;12.07;4.30;;;30.40;52.80;;;;;;5040685;28;20465;-88
2021/05/16 12:36:48;;;;;;;6.00;1.83;;;28.60;53.90;;;;;;5037468;28;20489;-85
2021/05/16 12:39:16;;;;;;;7.53;1.30;;;26.20;52.50;;;;;;5040363;28;20455;-82
2021/05/16 12:41:43;;;;;;;7.63;1.43;;;24.60;56.00;;;;;;5039843;28;20452;-84
2021/05/16 12:44:12;;;;;;;7.77;1.80;;;23.70;58.20;;;;;;5040137;28;20504;-83